createdAt,value
2018-12-04T00:01:02.245Z,8.30
2018-12-04T00:03:31.631Z,8.20
2018-12-04T00:06:03.263Z,8.20
2018-12-04T00:08:32.750Z,8.30
2018-12-04T00:11:02.198Z,8.10
2018-12-04T00:13:31.952Z,8.10
2018-12-04T00:16:02.135Z,8.10
2018-12-04T00:18:31.621Z,8.00
2018-12-04T00:21:02.219Z,8.10
2018-12-04T00:23:31.683Z,8.10
2018-12-04T00:26:02.182Z,8.10
2018-12-04T00:28:31.642Z,8.10
2018-12-04T00:31:01.059Z,8.10
2018-12-04T00:33:30.422Z,8.10
2018-12-04T00:36:00.052Z,8.00
2018-12-04T00:38:29.409Z,8.00
2018-12-04T00:41:00.674Z,7.90
2018-12-04T00:43:30.094Z,7.80
2018-12-04T00:46:00.246Z,7.80
2018-12-04T00:48:30.146Z,7.80
2018-12-04T00:51:00.503Z,7.70
2018-12-04T00:53:30.309Z,7.70
2018-12-04T00:56:02.278Z,7.80
2018-12-04T00:58:31.841Z,7.80
2018-12-04T01:01:02.266Z,7.90
2018-12-04T01:03:31.815Z,7.90
2018-12-04T01:06:03.357Z,8.00
2018-12-04T01:08:32.946Z,8.00
2018-12-04T01:11:02.712Z,8.00
2018-12-04T01:13:32.414Z,8.00
2018-12-04T01:16:02.411Z,8.00
2018-12-04T01:18:31.767Z,8.10
2018-12-04T01:21:02.390Z,8.10
2018-12-04T01:23:34.356Z,8.20
2018-12-04T01:26:11.400Z,8.30
2018-12-04T01:28:41.199Z,8.40
2018-12-04T01:31:10.629Z,8.30
2018-12-04T01:33:40.590Z,8.30
2018-12-04T01:36:09.982Z,8.20
2018-12-04T01:38:39.431Z,8.10
2018-12-04T01:41:09.663Z,8.00
2018-12-04T01:43:41.559Z,7.90
2018-12-04T01:46:11.014Z,7.90
2018-12-04T01:48:40.412Z,7.80
2018-12-04T01:51:09.830Z,7.80
2018-12-04T01:53:39.628Z,7.80
2018-12-04T01:56:09.119Z,7.70
2018-12-04T01:58:38.980Z,7.70
2018-12-04T02:01:08.346Z,7.80
2018-12-04T02:03:37.888Z,7.80
2018-12-04T02:06:07.437Z,7.80
2018-12-04T02:08:37.311Z,7.80
2018-12-04T02:11:06.827Z,6.80
2018-12-04T02:13:38.435Z,7.70
2018-12-04T02:16:07.917Z,7.60
2018-12-04T02:18:37.680Z,7.60
2018-12-04T02:21:07.391Z,7.50
2018-12-04T02:23:36.793Z,7.60
2018-12-04T02:26:06.283Z,7.50
2018-12-04T02:28:41.900Z,7.50
2018-12-04T02:31:11.732Z,7.50
2018-12-04T02:33:42.359Z,7.40
2018-12-04T02:36:11.780Z,7.40
2018-12-04T02:38:41.699Z,7.30
2018-12-04T02:41:11.605Z,7.20
2018-12-04T02:43:40.959Z,7.10
2018-12-04T02:46:10.390Z,7.00
2018-12-04T02:48:40.482Z,6.90
2018-12-04T02:51:09.815Z,7.00
2018-12-04T02:53:39.372Z,7.00
2018-12-04T02:56:08.797Z,7.00
2018-12-04T02:58:40.064Z,7.00
2018-12-04T03:01:09.568Z,7.00
2018-12-04T03:03:39.058Z,6.90
2018-12-04T03:06:08.405Z,6.90
2018-12-04T03:08:37.898Z,6.80
2018-12-04T03:11:07.380Z,6.80
2018-12-04T03:13:37.170Z,6.80
2018-12-04T03:16:06.776Z,6.80
2018-12-04T03:18:36.520Z,6.80
2018-12-04T03:21:06.655Z,6.90
2018-12-04T03:23:36.472Z,6.90
2018-12-04T03:26:06.244Z,6.90
2018-12-04T03:28:35.860Z,6.90
2018-12-04T03:31:05.398Z,7.00
2018-12-04T03:33:38.156Z,7.00
2018-12-04T03:36:08.013Z,7.00
2018-12-04T03:38:38.088Z,7.00
2018-12-04T03:41:07.753Z,7.00
2018-12-04T03:43:40.067Z,6.90
2018-12-04T03:46:09.503Z,6.90
2018-12-04T03:48:39.790Z,6.90
2018-12-04T03:51:09.163Z,6.90
2018-12-04T03:53:40.804Z,6.90
2018-12-04T03:56:10.311Z,6.90
2018-12-04T03:58:41.517Z,6.90
2018-12-04T04:01:11.262Z,7.00
2018-12-04T04:03:46.619Z,7.00
2018-12-04T04:06:16.337Z,7.00
2018-12-04T04:08:45.779Z,7.10
2018-12-04T04:11:15.314Z,7.10
2018-12-04T04:13:46.874Z,7.10
2018-12-04T04:16:16.324Z,7.00
2018-12-04T04:18:45.754Z,6.90
2018-12-04T04:21:15.460Z,6.90
2018-12-04T04:23:45.618Z,6.90
2018-12-04T04:26:15.099Z,7.00
2018-12-04T04:28:45.065Z,6.50
2018-12-04T04:31:14.506Z,7.00
2018-12-04T04:33:44.541Z,7.00
2018-12-04T04:36:13.927Z,6.90
2018-12-04T04:38:43.684Z,6.90
2018-12-04T04:41:13.255Z,6.90
2018-12-04T04:43:42.665Z,6.90
2018-12-04T04:46:12.052Z,6.80
2018-12-04T04:48:41.738Z,6.80
2018-12-04T04:51:11.373Z,6.80
2018-12-04T04:53:40.802Z,6.80
2018-12-04T04:56:10.154Z,6.80
2018-12-04T04:58:39.646Z,6.80
2018-12-04T05:01:09.921Z,6.80
2018-12-04T05:03:39.526Z,6.80
2018-12-04T05:06:09.967Z,6.80
2018-12-04T05:08:39.481Z,6.90
2018-12-04T05:11:08.905Z,6.90
2018-12-04T05:13:40.519Z,6.80
2018-12-04T05:16:10.009Z,6.90
2018-12-04T05:18:39.457Z,6.90
2018-12-04T05:21:09.758Z,6.90
2018-12-04T05:23:41.296Z,7.00
2018-12-04T05:26:12.831Z,7.00
2018-12-04T05:28:42.730Z,6.90
2018-12-04T05:31:12.201Z,6.80
2018-12-04T05:33:41.632Z,6.70
2018-12-04T05:36:13.183Z,6.70
2018-12-04T05:38:42.588Z,6.70
2018-12-04T05:41:12.079Z,6.60
2018-12-04T05:43:41.598Z,6.60
2018-12-04T05:46:10.935Z,6.60
2018-12-04T05:48:40.413Z,6.60
2018-12-04T05:51:09.858Z,6.60
2018-12-04T05:53:39.170Z,6.60
2018-12-04T05:56:11.494Z,6.60
2018-12-04T05:58:41.011Z,6.60
2018-12-04T06:01:11.026Z,6.70
2018-12-04T06:03:40.945Z,6.80
2018-12-04T06:06:10.496Z,6.70
2018-12-04T06:08:40.354Z,6.70
2018-12-04T06:11:09.887Z,6.60
2018-12-04T06:13:39.214Z,6.50
2018-12-04T06:16:08.735Z,6.40
2018-12-04T06:18:38.531Z,6.40
2018-12-04T06:21:08.035Z,6.40
2018-12-04T06:23:37.438Z,6.40
2018-12-04T06:26:06.840Z,6.30
2018-12-04T06:28:36.316Z,6.30
2018-12-04T06:31:05.752Z,6.20
2018-12-04T06:33:35.151Z,6.30
2018-12-04T06:36:05.178Z,6.10
2018-12-04T06:38:35.489Z,6.10
2018-12-04T06:41:04.895Z,6.10
2018-12-04T06:43:34.254Z,6.10
2018-12-04T06:46:03.853Z,6.10
2018-12-04T06:48:33.322Z,6.10
2018-12-04T06:51:03.258Z,6.10
2018-12-04T06:53:33.285Z,6.10
2018-12-04T06:56:04.121Z,6.30
2018-12-04T06:58:33.748Z,6.30
2018-12-04T07:01:03.810Z,6.20
2018-12-04T07:03:33.216Z,6.30
2018-12-04T07:06:03.300Z,6.30
2018-12-04T07:08:33.117Z,6.30
2018-12-04T07:11:03.338Z,6.30
2018-12-04T07:13:32.639Z,6.40
2018-12-04T07:16:02.146Z,6.30
2018-12-04T07:18:31.626Z,6.30
2018-12-04T07:21:01.451Z,6.20
2018-12-04T07:23:30.948Z,6.20
2018-12-04T07:26:00.698Z,6.10
2018-12-04T07:28:30.961Z,6.10
2018-12-04T07:31:01.127Z,6.00
2018-12-04T07:33:31.592Z,5.90
2018-12-04T07:36:01.091Z,5.90
2018-12-04T07:38:30.916Z,5.90
2018-12-04T07:41:00.562Z,5.90
2018-12-04T07:43:30.602Z,5.90
2018-12-04T07:46:00.008Z,5.90
2018-12-04T07:48:30.136Z,5.90
2018-12-04T07:50:59.542Z,5.90
2018-12-04T07:53:28.996Z,5.90
2018-12-04T07:56:00.528Z,5.90
2018-12-04T07:58:29.947Z,5.80
2018-12-04T08:00:59.450Z,5.80
2018-12-04T08:03:28.879Z,5.80
2018-12-04T08:06:00.307Z,5.90
2018-12-04T08:08:29.699Z,5.80
2018-12-04T08:10:59.298Z,5.80
2018-12-04T08:13:28.978Z,5.90
2018-12-04T08:15:58.378Z,5.90
2018-12-04T08:18:27.841Z,5.90
2018-12-04T08:20:57.643Z,6.00
2018-12-04T08:23:27.241Z,6.00
2018-12-04T08:25:56.637Z,6.00
2018-12-04T08:28:26.082Z,6.00
2018-12-04T08:30:55.426Z,6.00
2018-12-04T08:33:24.854Z,6.00
2018-12-04T08:35:54.243Z,5.90
2018-12-04T08:38:23.653Z,5.90
2018-12-04T08:40:53.029Z,5.90
2018-12-04T08:43:22.426Z,5.90
2018-12-04T08:45:51.819Z,6.00
2018-12-04T08:48:21.289Z,5.90
2018-12-04T08:50:50.812Z,5.90
2018-12-04T08:53:20.219Z,6.00
2018-12-04T08:55:49.580Z,6.00
2018-12-04T08:58:19.321Z,6.00
2018-12-04T09:00:48.783Z,6.00
2018-12-04T09:03:18.211Z,6.00
2018-12-04T09:05:47.542Z,6.00
2018-12-04T09:08:17.691Z,6.10
2018-12-04T09:10:47.185Z,6.10
2018-12-04T09:13:16.565Z,6.10
2018-12-04T09:15:45.932Z,6.10
2018-12-04T09:18:17.479Z,6.10
2018-12-04T09:20:46.894Z,6.10
2018-12-04T09:23:16.340Z,6.10
2018-12-04T09:25:45.814Z,6.20
2018-12-04T09:28:15.396Z,6.20
2018-12-04T09:30:45.378Z,6.20
2018-12-04T09:33:17.793Z,6.30
2018-12-04T09:35:47.162Z,6.30
2018-12-04T09:38:16.646Z,6.30
2018-12-04T09:40:46.093Z,6.40
2018-12-04T09:43:15.534Z,6.40
2018-12-04T09:45:44.887Z,6.40
2018-12-04T09:48:14.411Z,6.40
2018-12-04T09:50:43.768Z,6.40
2018-12-04T09:53:13.143Z,6.40
2018-12-04T09:55:42.772Z,6.50
2018-12-04T09:58:12.757Z,6.50
2018-12-04T10:00:42.118Z,6.50
2018-12-04T10:03:11.625Z,6.40
2018-12-04T10:05:41.291Z,6.40
2018-12-04T10:08:10.627Z,6.40
2018-12-04T10:10:42.179Z,6.40
2018-12-04T10:13:13.083Z,6.40
2018-12-04T10:15:42.918Z,6.40
2018-12-04T10:18:14.454Z,6.50
2018-12-04T10:20:43.927Z,6.50
2018-12-04T10:23:13.312Z,6.60
2018-12-04T10:25:47.816Z,6.70
2018-12-04T10:28:17.447Z,6.70
2018-12-04T10:31:17.547Z,6.80
2018-12-04T10:33:46.937Z,6.80
2018-12-04T10:36:16.571Z,6.90
2018-12-04T10:38:46.407Z,7.00
2018-12-04T10:41:15.769Z,7.10
2018-12-04T10:43:45.291Z,7.30
2018-12-04T10:46:14.716Z,7.30
2018-12-04T10:48:44.778Z,7.30
2018-12-04T10:51:14.209Z,7.20
2018-12-04T10:53:43.672Z,7.30
2018-12-04T10:56:13.053Z,7.20
2018-12-04T10:58:42.460Z,7.00
2018-12-04T11:01:17.397Z,7.00
2018-12-04T11:03:48.055Z,7.00
2018-12-04T11:06:17.484Z,7.00
2018-12-04T11:08:47.413Z,7.10
2018-12-04T11:11:16.745Z,7.10
2018-12-04T11:13:46.127Z,7.10
2018-12-04T11:16:15.543Z,7.10
2018-12-04T11:18:46.032Z,7.10
2018-12-04T11:21:15.988Z,7.10
2018-12-04T11:23:46.470Z,7.00
2018-12-04T11:26:18.013Z,7.10
2018-12-04T11:28:47.588Z,7.10
2018-12-04T11:31:17.380Z,7.10
2018-12-04T11:33:47.156Z,7.10
2018-12-04T11:36:16.576Z,7.20
2018-12-04T11:38:46.017Z,7.10
2018-12-04T11:41:15.760Z,7.00
2018-12-04T11:43:45.410Z,6.90
2018-12-04T11:46:14.762Z,6.90
2018-12-04T11:48:44.254Z,6.90
2018-12-04T11:51:13.618Z,6.90
2018-12-04T11:53:43.015Z,6.90
2018-12-04T11:56:12.439Z,6.90
2018-12-04T11:58:41.802Z,6.90
2018-12-04T12:01:16.758Z,6.80
2018-12-04T12:03:46.204Z,6.80
2018-12-04T12:06:16.599Z,6.80
2018-12-04T12:08:46.463Z,6.70
2018-12-04T12:11:15.847Z,6.70
2018-12-04T12:13:45.226Z,6.70
2018-12-04T12:16:14.629Z,6.70
2018-12-04T12:18:46.140Z,6.70
2018-12-04T12:21:15.548Z,6.70
2018-12-04T12:23:45.318Z,6.70
2018-12-04T12:26:14.669Z,6.80
2018-12-04T12:28:44.135Z,6.80
2018-12-04T12:31:14.382Z,6.80
2018-12-04T12:33:44.059Z,6.80
2018-12-04T12:36:13.655Z,6.80
2018-12-04T12:38:45.247Z,6.90
2018-12-04T12:41:15.056Z,6.80
2018-12-04T12:43:44.563Z,6.80
2018-12-04T12:46:14.871Z,6.70
2018-12-04T12:48:45.310Z,6.70
2018-12-04T12:51:15.259Z,6.60
2018-12-04T12:53:44.727Z,6.50
2018-12-04T12:56:14.873Z,6.30
2018-12-04T12:58:44.531Z,6.30
2018-12-04T13:01:16.076Z,6.10
2018-12-04T13:03:45.498Z,6.00
2018-12-04T13:06:14.926Z,6.00
2018-12-04T13:08:44.528Z,5.90
2018-12-04T13:11:13.853Z,5.90
2018-12-04T13:13:43.821Z,5.90
2018-12-04T13:16:13.324Z,5.90
2018-12-04T13:18:42.693Z,6.00
2018-12-04T13:21:12.072Z,6.20
2018-12-04T13:23:41.398Z,6.30
2018-12-04T13:26:10.719Z,6.50
2018-12-04T13:28:40.754Z,6.60
2018-12-04T13:31:10.259Z,6.50
2018-12-04T13:33:40.145Z,6.30
2018-12-04T13:36:09.942Z,6.10
2018-12-04T13:38:39.478Z,6.10
2018-12-04T13:41:09.174Z,6.00
2018-12-04T13:43:40.980Z,6.00
2018-12-04T13:46:10.847Z,5.90
2018-12-04T13:48:41.893Z,5.80
2018-12-04T13:51:12.991Z,5.90
2018-12-04T13:53:43.908Z,5.80
2018-12-04T13:56:15.058Z,5.90
2018-12-04T13:58:48.932Z,5.80
2018-12-04T14:01:20.250Z,5.80
2018-12-04T14:03:51.325Z,5.90
2018-12-04T14:06:22.855Z,6.00
2018-12-04T14:08:54.012Z,6.10
2018-12-04T14:11:25.288Z,6.00
2018-12-04T14:13:56.932Z,5.90
2018-12-04T14:16:29.583Z,5.90
2018-12-04T14:19:01.121Z,5.80
2018-12-04T14:21:33.259Z,5.70
2018-12-04T14:24:06.396Z,5.60
2018-12-04T14:26:37.560Z,5.50
2018-12-04T14:29:09.997Z,5.50
2018-12-04T14:31:41.165Z,5.50
2018-12-04T14:34:12.866Z,5.40
2018-12-04T14:36:43.930Z,5.40
2018-12-04T14:39:14.859Z,5.30
2018-12-04T14:41:46.515Z,5.30
2018-12-04T14:44:25.453Z,5.30
2018-12-04T14:46:56.565Z,5.40
2018-12-04T14:49:29.135Z,5.30
2018-12-04T14:52:00.242Z,5.20
2018-12-04T14:54:31.015Z,5.10
2018-12-04T14:57:02.107Z,5.10
2018-12-04T14:59:33.216Z,5.10
2018-12-04T15:02:04.386Z,5.20
2018-12-04T15:04:35.130Z,5.10
2018-12-04T15:07:06.500Z,5.10
2018-12-04T15:09:37.100Z,5.10
2018-12-04T15:12:08.321Z,5.10
2018-12-04T15:14:39.274Z,5.20
2018-12-04T15:17:09.573Z,5.10
2018-12-04T15:19:41.421Z,5.00
2018-12-04T15:22:12.138Z,5.00
2018-12-04T15:24:43.217Z,4.90
2018-12-04T15:27:14.217Z,4.80
2018-12-04T15:29:45.450Z,4.70
2018-12-04T15:32:16.890Z,4.70
2018-12-04T15:34:47.873Z,4.80
2018-12-04T15:37:18.853Z,4.70
2018-12-04T15:39:49.533Z,4.70
2018-12-04T15:42:20.521Z,4.70
2018-12-04T15:44:51.555Z,4.60
2018-12-04T15:47:22.597Z,4.60
2018-12-04T15:49:56.603Z,4.60
2018-12-04T15:52:27.568Z,4.50
2018-12-04T15:54:58.710Z,4.30
2018-12-04T15:57:28.621Z,4.20
2018-12-04T16:00:00.186Z,4.20
2018-12-04T16:02:31.255Z,4.20
2018-12-04T16:05:00.620Z,4.20
2018-12-04T16:07:34.144Z,4.10
2018-12-04T16:10:09.466Z,4.00
2018-12-04T16:12:40.669Z,4.00
2018-12-04T16:15:11.593Z,3.90
2018-12-04T16:17:42.940Z,3.80
2018-12-04T16:20:14.170Z,3.80
2018-12-04T16:22:46.227Z,3.70
2018-12-04T16:25:17.300Z,3.60
2018-12-04T16:27:49.207Z,3.60
2018-12-04T16:30:22.429Z,3.50
2018-12-04T16:32:54.156Z,3.50
2018-12-04T16:35:24.116Z,3.50
2018-12-04T16:37:55.083Z,3.50
2018-12-04T16:40:24.572Z,3.50
2018-12-04T16:42:54.658Z,3.50
2018-12-04T16:45:25.377Z,3.50
2018-12-04T16:47:56.156Z,3.50
2018-12-04T16:50:26.403Z,3.50
2018-12-04T16:52:57.492Z,3.40
2018-12-04T16:55:29.030Z,3.40
2018-12-04T16:58:00.611Z,3.40
2018-12-04T17:00:31.694Z,3.40
2018-12-04T17:03:02.854Z,3.40
2018-12-04T17:05:33.502Z,3.40
2018-12-04T17:08:03.100Z,3.40
2018-12-04T17:10:35.137Z,3.30
2018-12-04T17:13:06.452Z,3.30
2018-12-04T17:15:36.076Z,3.30
2018-12-04T17:18:07.476Z,3.20
2018-12-04T17:20:38.806Z,3.20
2018-12-04T17:23:09.520Z,3.20
2018-12-04T17:25:38.990Z,3.20
2018-12-04T17:28:09.147Z,3.10
2018-12-04T17:30:41.165Z,3.10
2018-12-04T17:33:12.772Z,3.10
2018-12-04T17:35:42.991Z,3.10
2018-12-04T17:38:13.194Z,3.10
2018-12-04T17:40:42.921Z,3.00
2018-12-04T17:43:12.386Z,3.00
2018-12-04T17:45:42.039Z,3.00
2018-12-04T17:48:12.673Z,2.90
2018-12-04T17:50:44.219Z,2.90
2018-12-04T17:53:13.885Z,2.90
2018-12-04T17:55:43.228Z,2.90
2018-12-04T17:58:12.863Z,2.90
2018-12-04T18:00:42.307Z,2.80
2018-12-04T18:03:12.281Z,2.80
2018-12-04T18:05:41.610Z,2.80
2018-12-04T18:08:10.992Z,2.80
2018-12-04T18:10:40.480Z,2.70
2018-12-04T18:13:10.200Z,2.70
2018-12-04T18:15:39.571Z,2.60
2018-12-04T18:18:08.979Z,2.60
2018-12-04T18:20:38.434Z,2.50
2018-12-04T18:23:07.818Z,2.50
2018-12-04T18:25:37.212Z,2.50
2018-12-04T18:28:06.656Z,2.50
2018-12-04T18:30:35.960Z,2.50
2018-12-04T18:33:05.329Z,2.50
2018-12-04T18:35:35.124Z,2.50
2018-12-04T18:38:05.458Z,2.50
2018-12-04T18:40:35.418Z,2.50
2018-12-04T18:43:05.574Z,2.50
2018-12-04T18:45:35.192Z,2.50
2018-12-04T18:48:05.550Z,2.50
2018-12-04T18:50:35.020Z,2.40
2018-12-04T18:53:04.530Z,2.40
2018-12-04T18:55:34.162Z,2.30
2018-12-04T18:58:03.978Z,2.30
2018-12-04T19:00:33.983Z,2.20
2018-12-04T19:03:03.948Z,2.20
2018-12-04T19:05:34.828Z,2.20
2018-12-04T19:08:04.409Z,2.10
2018-12-04T19:10:34.798Z,2.10
2018-12-04T19:13:04.248Z,2.10
2018-12-04T19:15:33.901Z,2.20
2018-12-04T19:18:03.360Z,2.10
2018-12-04T19:20:32.917Z,2.10
2018-12-04T19:23:02.319Z,2.10
2018-12-04T19:25:31.990Z,2.10
2018-12-04T19:28:01.466Z,2.10
2018-12-04T19:30:31.160Z,2.10
2018-12-04T19:33:00.496Z,2.10
2018-12-04T19:35:30.448Z,2.10
2018-12-04T19:37:59.818Z,2.20
2018-12-04T19:40:29.223Z,2.20
2018-12-04T19:42:58.624Z,2.10
2018-12-04T19:45:28.048Z,2.10
2018-12-04T19:47:57.932Z,2.10
2018-12-04T19:50:28.347Z,2.00
2018-12-04T19:53:03.321Z,2.00
2018-12-04T19:55:38.215Z,2.00
2018-12-04T19:58:10.246Z,2.10
2018-12-04T20:00:41.220Z,2.10
2018-12-04T20:03:10.987Z,2.10
2018-12-04T20:05:41.137Z,2.10
2018-12-04T20:08:10.802Z,2.10
2018-12-04T20:10:40.815Z,2.10
2018-12-04T20:13:10.318Z,2.00
2018-12-04T20:15:39.875Z,2.10
2018-12-04T20:18:09.606Z,2.00
2018-12-04T20:20:40.417Z,2.00
2018-12-04T20:23:10.587Z,2.00
2018-12-04T20:26:03.713Z,2.00
2018-12-04T20:29:01.796Z,2.00
2018-12-04T20:31:32.362Z,2.10
2018-12-04T20:34:01.964Z,2.00
2018-12-04T20:36:31.511Z,2.00
2018-12-04T20:39:02.145Z,2.00
2018-12-04T20:41:32.111Z,2.00
2018-12-04T20:44:02.048Z,1.90
2018-12-04T20:46:32.176Z,1.90
2018-12-04T20:49:01.681Z,1.90
2018-12-04T20:51:31.203Z,1.80
2018-12-04T20:54:01.187Z,1.80
2018-12-04T20:56:30.712Z,1.80
2018-12-04T20:59:00.265Z,1.60
2018-12-04T21:01:32.477Z,1.70
2018-12-04T21:04:01.978Z,1.60
2018-12-04T21:06:31.655Z,1.70
2018-12-04T21:09:01.033Z,1.70
2018-12-04T21:11:30.403Z,1.60
2018-12-04T21:13:59.828Z,1.70
2018-12-04T21:16:29.184Z,1.70
2018-12-04T21:18:58.629Z,1.70
2018-12-04T21:21:28.367Z,1.70
2018-12-04T21:23:57.879Z,1.70
2018-12-04T21:26:27.243Z,1.70
2018-12-04T21:29:02.090Z,1.70
2018-12-04T21:31:39.952Z,1.70
2018-12-04T21:34:13.661Z,1.70
2018-12-04T21:39:36.517Z,1.80
2018-12-04T21:42:12.328Z,1.80
2018-12-04T21:44:47.410Z,1.70
2018-12-04T21:47:22.215Z,1.70
2018-12-04T21:49:51.605Z,1.70
2018-12-04T21:52:20.998Z,1.60
2018-12-04T21:54:50.375Z,1.60
2018-12-04T21:57:19.741Z,1.60
2018-12-04T21:59:50.117Z,1.60
2018-12-04T22:02:19.572Z,1.60
2018-12-04T22:04:49.036Z,1.60
2018-12-04T22:07:18.542Z,1.60
2018-12-04T22:09:48.260Z,1.60
2018-12-04T22:12:17.652Z,1.60
2018-12-04T22:14:47.139Z,1.60
2018-12-04T22:17:17.336Z,1.60
2018-12-04T22:19:47.526Z,1.60
2018-12-04T22:22:16.889Z,1.60
2018-12-04T22:24:46.439Z,1.60
2018-12-04T22:27:15.803Z,1.60
2018-12-04T22:29:45.210Z,1.60
2018-12-04T22:32:14.509Z,1.60
2018-12-04T22:34:43.896Z,1.60
2018-12-04T22:37:13.295Z,1.50
2018-12-04T22:39:43.215Z,1.50
2018-12-04T22:42:12.684Z,1.50
2018-12-04T22:44:47.665Z,1.50
2018-12-04T22:47:18.090Z,1.50
2018-12-04T22:49:48.137Z,1.50
2018-12-04T22:52:18.118Z,1.40
2018-12-04T22:54:47.566Z,1.40
2018-12-04T22:57:16.979Z,1.50
2018-12-04T23:02:12.310Z,1.50
2018-12-04T23:04:42.497Z,1.50
2018-12-04T23:09:46.266Z,1.50
2018-12-04T23:12:15.643Z,1.50
2018-12-04T23:14:44.993Z,1.50
2018-12-04T23:17:14.384Z,1.40
2018-12-04T23:19:44.226Z,1.50
2018-12-04T23:22:14.176Z,1.50
2018-12-04T23:24:43.723Z,1.60
2018-12-04T23:27:13.283Z,1.60
2018-12-04T23:29:43.199Z,1.70
2018-12-04T23:32:12.870Z,1.70
2018-12-04T23:34:42.233Z,1.70
2018-12-04T23:37:12.321Z,1.80
2018-12-04T23:39:42.223Z,1.70
2018-12-04T23:42:12.110Z,1.70
2018-12-04T23:44:41.528Z,1.30
2018-12-04T23:47:13.064Z,1.60
2018-12-04T23:49:42.519Z,1.60
2018-12-04T23:52:11.883Z,1.50
2018-12-04T23:54:41.270Z,1.50
2018-12-04T23:57:10.827Z,1.60
2018-12-04T23:59:40.440Z,1.50
